Weather at Caboolture Airport

Public forecast

Using degrees Celsius for public forecast. Weather courtesy of forecast.io.

Closest aviation weather report (METAR) to Caboolture Airport

Closest report is Brisbane International Airport, 19.8 nm (36.6 km) SSE.

2024/05/22 23:30 (retrieved 14 minutes ago)

YBBN 222330Z 20012KT 9999 FEW040 18/12 Q1025

Closest aviation forecast (TAF) to Caboolture Airport

Closest forecast is Brisbane International Airport, 19.8 nm (36.6 km) SSE.

2024/05/22 21:00 (retrieved 3 hours ago)

TAF YBBN 222010Z 2221/2400 20008KT CAVOK FM230400 11008KT CAVOK FM230900 21007KT 9999 FEW030